fecha-hora | temperatura | viento dirección-velocidad-rachas | humedad | presión

  • 30-05-2020 20:00:00 | 22.20°C | Este-13.00 km/h - 21.00 km/h | 56.00% | 1012.30 hPa
  • 30-05-2020 19:00:00 | 23.00°C | Sudeste-13.00 km/h - 24.00 km/h | 52.00% | 1012.40 hPa
  • 30-05-2020 18:00:00 | 23.70°C | Sudeste-19.00 km/h - 26.00 km/h | 50.00% | 1013.00 hPa
  • 30-05-2020 17:00:00 | 24.40°C | Este-16.00 km/h - 30.00 km/h | 49.00% | 1013.10 hPa
  • 30-05-2020 16:00:00 | 24.20°C | Este-17.00 km/h - 32.00 km/h | 50.00% | 1013.40 hPa
  • 30-05-2020 15:00:00 | 23.50°C | Este-16.00 km/h - 26.00 km/h | 54.00% | 1013.70 hPa
  • 30-05-2020 14:00:00 | 23.70°C | Este-18.00 km/h - 26.00 km/h | 51.00% | 1014.00 hPa
  • 30-05-2020 13:00:00 | 23.70°C | Sudeste-18.00 km/h - 28.00 km/h | 53.00% | 1014.30 hPa
  • 30-05-2020 12:00:00 | 23.00°C | Este-18.00 km/h - 26.00 km/h | 56.00% | 1014.40 hPa
  • 30-05-2020 11:00:00 | 22.40°C | Este-17.00 km/h - 26.00 km/h | 59.00% | 1014.20 hPa
  • 30-05-2020 10:00:00 | 22.10°C | Este-16.00 km/h - 22.00 km/h | 56.00% | 1014.20 hPa
  • 30-05-2020 09:00:00 | 21.30°C | Nordeste-15.00 km/h - 21.00 km/h | 58.00% | 1013.90 hPa
  • 30-05-2020 08:00:00 | 19.40°C | Norte-9.00 km/h - 13.00 km/h | 69.00% | 1014.00 hPa
  • 30-05-2020 07:00:00 | 16.10°C | Norte-9.00 km/h - 13.00 km/h | 80.00% | 1013.80 hPa
  • 30-05-2020 06:00:00 | 16.00°C | Norte-5.00 km/h - 13.00 km/h | 79.00% | 1013.50 hPa
  • 30-05-2020 05:00:00 | 16.70°C | Norte-10.00 km/h - 13.00 km/h | 76.00% | 1013.70 hPa
  • 30-05-2020 04:00:00 | 18.60°C | Nordeste-8.00 km/h - 21.00 km/h | 70.00% | 1013.90 hPa
  • 30-05-2020 03:00:00 | 19.20°C | Este-14.00 km/h - 22.00 km/h | 68.00% | 1013.90 hPa
  • 30-05-2020 02:00:00 | 19.40°C | Este-14.00 km/h - 28.00 km/h | 66.00% | 1014.10 hPa
  • 30-05-2020 01:00:00 | 19.80°C | Este-16.00 km/h - 26.00 km/h | 62.00% | 1014.00 hPa
  • 30-05-2020 00:00:00 | 19.80°C | Este-18.00 km/h - 28.00 km/h | 63.00% | 1013.70 hPa
  • 29-05-2020 22:00:00 | 19.90°C | Este-14.00 km/h - 21.00 km/h | 58.00% | 1012.60 hPa
  • 29-05-2020 22:00:00 | 19.90°C | Este-14.00 km/h - 21.00 km/h | 58.00% | 1012.60 hPa
  • 29-05-2020 21:00:00 | 20.40°C | Este-11.00 km/h - 18.00 km/h | 56.00% | 1012.40 hPa
    • diseño web asturias Información sobre el estado de las mareas, altura de la marejada, temperatura del agua y otros datos de Gijón en Asturias.

      Surf Gijón